sensor_id;sensor_type;location;lat;lon;timestamp;P1;durP1;ratioP1;P2;durP2;ratioP2
69170;SDS011;56279;47.902;12.308;2022-12-07T00:01:38;13.45;;;6.72;;
69170;SDS011;56279;47.902;12.308;2022-12-07T00:03:43;12.93;;;6.50;;
69170;SDS011;56279;47.902;12.308;2022-12-07T00:05:47;14.63;;;6.00;;
69170;SDS011;56279;47.902;12.308;2022-12-07T00:07:48;11.35;;;6.15;;
69170;SDS011;56279;47.902;12.308;2022-12-07T00:09:50;11.70;;;6.47;;
69170;SDS011;56279;47.902;12.308;2022-12-07T00:11:51;13.77;;;6.43;;
69170;SDS011;56279;47.902;12.308;2022-12-07T00:13:57;12.50;;;6.47;;
69170;SDS011;56279;47.902;12.308;2022-12-07T00:16:02;11.77;;;6.00;;
69170;SDS011;56279;47.902;12.308;2022-12-07T00:18:05;16.27;;;6.88;;
69170;SDS011;56279;47.902;12.308;2022-12-07T00:20:07;12.60;;;6.53;;
69170;SDS011;56279;47.902;12.308;2022-12-07T00:22:08;14.25;;;6.82;;
69170;SDS011;56279;47.902;12.308;2022-12-07T00:24:10;15.30;;;7.20;;
69170;SDS011;56279;47.902;12.308;2022-12-07T00:26:16;11.75;;;6.60;;
69170;SDS011;56279;47.902;12.308;2022-12-07T00:28:22;11.95;;;6.22;;
69170;SDS011;56279;47.902;12.308;2022-12-07T00:30:23;11.33;;;6.13;;
69170;SDS011;56279;47.902;12.308;2022-12-07T00:32:25;11.43;;;5.85;;
69170;SDS011;56279;47.902;12.308;2022-12-07T00:34:28;12.27;;;6.70;;
69170;SDS011;56279;47.902;12.308;2022-12-07T00:36:29;11.02;;;5.97;;
69170;SDS011;56279;47.902;12.308;2022-12-07T00:38:31;11.52;;;6.20;;
69170;SDS011;56279;47.902;12.308;2022-12-07T00:40:33;13.73;;;6.70;;
69170;SDS011;56279;47.902;12.308;2022-12-07T00:42:34;11.80;;;6.75;;
69170;SDS011;56279;47.902;12.308;2022-12-07T00:44:36;12.25;;;6.32;;
69170;SDS011;56279;47.902;12.308;2022-12-07T00:46:37;12.70;;;6.68;;
69170;SDS011;56279;47.902;12.308;2022-12-07T00:48:38;11.75;;;5.72;;
69170;SDS011;56279;47.902;12.308;2022-12-07T00:50:40;10.93;;;5.63;;
69170;SDS011;56279;47.902;12.308;2022-12-07T00:52:41;12.43;;;6.30;;
69170;SDS011;56279;47.902;12.308;2022-12-07T00:54:42;10.70;;;6.13;;
69170;SDS011;56279;47.902;12.308;2022-12-07T00:56:45;13.68;;;6.57;;
69170;SDS011;56279;47.902;12.308;2022-12-07T00:58:49;12.57;;;6.63;;
69170;SDS011;56279;47.902;12.308;2022-12-07T01:01:01;14.17;;;6.67;;
69170;SDS011;56279;47.902;12.308;2022-12-07T01:03:04;14.38;;;6.85;;
69170;SDS011;56279;47.902;12.308;2022-12-07T01:05:06;12.70;;;6.50;;
69170;SDS011;56279;47.902;12.308;2022-12-07T01:07:07;14.60;;;6.75;;
69170;SDS011;56279;47.902;12.308;2022-12-07T01:09:09;14.55;;;6.25;;
69170;SDS011;56279;47.902;12.308;2022-12-07T01:11:12;16.30;;;6.97;;
69170;SDS011;56279;47.902;12.308;2022-12-07T01:13:16;13.68;;;6.53;;
69170;SDS011;56279;47.902;12.308;2022-12-07T01:15:17;14.65;;;6.93;;
69170;SDS011;56279;47.902;12.308;2022-12-07T01:17:18;18.83;;;7.63;;
69170;SDS011;56279;47.902;12.308;2022-12-07T01:19:20;14.38;;;6.90;;
69170;SDS011;56279;47.902;12.308;2022-12-07T01:21:25;13.77;;;6.73;;
69170;SDS011;56279;47.902;12.308;2022-12-07T01:23:29;15.32;;;7.28;;
69170;SDS011;56279;47.902;12.308;2022-12-07T01:25:32;18.58;;;7.82;;
69170;SDS011;56279;47.902;12.308;2022-12-07T01:27:34;14.85;;;7.30;;
69170;SDS011;56279;47.902;12.308;2022-12-07T01:29:36;16.58;;;6.85;;
69170;SDS011;56279;47.902;12.308;2022-12-07T01:31:37;15.63;;;6.87;;
69170;SDS011;56279;47.902;12.308;2022-12-07T01:33:38;16.67;;;7.53;;
69170;SDS011;56279;47.902;12.308;2022-12-07T01:35:40;14.82;;;7.38;;
69170;SDS011;56279;47.902;12.308;2022-12-07T01:37:41;14.20;;;6.68;;
69170;SDS011;56279;47.902;12.308;2022-12-07T01:39:43;14.02;;;6.95;;
69170;SDS011;56279;47.902;12.308;2022-12-07T01:41:44;14.67;;;6.93;;
69170;SDS011;56279;47.902;12.308;2022-12-07T01:46:32;16.85;;;7.05;;
69170;SDS011;56279;47.902;12.308;2022-12-07T01:48:34;15.57;;;7.40;;
69170;SDS011;56279;47.902;12.308;2022-12-07T01:50:39;13.50;;;6.85;;
69170;SDS011;56279;47.902;12.308;2022-12-07T01:52:43;15.13;;;7.10;;
69170;SDS011;56279;47.902;12.308;2022-12-07T01:54:47;15.77;;;7.25;;
69170;SDS011;56279;47.902;12.308;2022-12-07T01:56:53;15.55;;;7.22;;
69170;SDS011;56279;47.902;12.308;2022-12-07T01:58:57;13.85;;;6.45;;
69170;SDS011;56279;47.902;12.308;2022-12-07T02:01:02;15.90;;;7.40;;
69170;SDS011;56279;47.902;12.308;2022-12-07T02:05:26;14.52;;;6.43;;
69170;SDS011;56279;47.902;12.308;2022-12-07T02:07:28;15.30;;;6.65;;
69170;SDS011;56279;47.902;12.308;2022-12-07T02:09:30;14.75;;;6.63;;
69170;SDS011;56279;47.902;12.308;2022-12-07T02:11:31;14.85;;;6.80;;
69170;SDS011;56279;47.902;12.308;2022-12-07T02:13:34;14.53;;;7.00;;
69170;SDS011;56279;47.902;12.308;2022-12-07T02:15:45;13.85;;;6.57;;
69170;SDS011;56279;47.902;12.308;2022-12-07T02:29:32;13.45;;;6.20;;
69170;SDS011;56279;47.902;12.308;2022-12-07T02:31:37;15.07;;;6.93;;
69170;SDS011;56279;47.902;12.308;2022-12-07T02:33:53;13.60;;;6.97;;
69170;SDS011;56279;47.902;12.308;2022-12-07T02:38:30;15.30;;;6.80;;
69170;SDS011;56279;47.902;12.308;2022-12-07T02:40:40;15.50;;;7.05;;
69170;SDS011;56279;47.902;12.308;2022-12-07T02:42:50;14.88;;;6.18;;
69170;SDS011;56279;47.902;12.308;2022-12-07T02:44:56;13.93;;;6.30;;
69170;SDS011;56279;47.902;12.308;2022-12-07T02:47:07;13.93;;;6.87;;
69170;SDS011;56279;47.902;12.308;2022-12-07T02:49:13;13.30;;;6.30;;
69170;SDS011;56279;47.902;12.308;2022-12-07T02:51:14;12.90;;;6.28;;
69170;SDS011;56279;47.902;12.308;2022-12-07T02:53:34;14.30;;;7.03;;
69170;SDS011;56279;47.902;12.308;2022-12-07T02:55:37;14.38;;;6.93;;
69170;SDS011;56279;47.902;12.308;2022-12-07T03:00:14;13.93;;;6.93;;
69170;SDS011;56279;47.902;12.308;2022-12-07T03:04:42;13.70;;;6.40;;
69170;SDS011;56279;47.902;12.308;2022-12-07T03:07:05;12.52;;;6.40;;
69170;SDS011;56279;47.902;12.308;2022-12-07T03:09:33;13.30;;;5.83;;
69170;SDS011;56279;47.902;12.308;2022-12-07T03:11:45;11.27;;;6.05;;
69170;SDS011;56279;47.902;12.308;2022-12-07T03:13:55;15.13;;;7.45;;
69170;SDS011;56279;47.902;12.308;2022-12-07T03:18:59;13.63;;;6.32;;
69170;SDS011;56279;47.902;12.308;2022-12-07T03:21:05;16.13;;;6.47;;
69170;SDS011;56279;47.902;12.308;2022-12-07T03:23:10;13.18;;;6.28;;
69170;SDS011;56279;47.902;12.308;2022-12-07T03:25:14;16.60;;;7.82;;
69170;SDS011;56279;47.902;12.308;2022-12-07T03:27:27;15.93;;;7.32;;
69170;SDS011;56279;47.902;12.308;2022-12-07T03:29:48;13.70;;;6.68;;
69170;SDS011;56279;47.902;12.308;2022-12-07T03:31:57;15.83;;;6.60;;
69170;SDS011;56279;47.902;12.308;2022-12-07T03:34:23;16.35;;;6.25;;
69170;SDS011;56279;47.902;12.308;2022-12-07T03:41:25;13.73;;;6.60;;
69170;SDS011;56279;47.902;12.308;2022-12-07T03:43:29;14.10;;;6.63;;
69170;SDS011;56279;47.902;12.308;2022-12-07T03:45:37;11.90;;;5.95;;
69170;SDS011;56279;47.902;12.308;2022-12-07T03:50:14;12.38;;;5.82;;
69170;SDS011;56279;47.902;12.308;2022-12-07T03:54:31;12.80;;;6.30;;
69170;SDS011;56279;47.902;12.308;2022-12-07T03:56:37;15.32;;;6.63;;
69170;SDS011;56279;47.902;12.308;2022-12-07T03:58:40;15.25;;;6.50;;
69170;SDS011;56279;47.902;12.308;2022-12-07T04:00:43;16.35;;;7.25;;
69170;SDS011;56279;47.902;12.308;2022-12-07T04:02:45;15.32;;;6.75;;
69170;SDS011;56279;47.902;12.308;2022-12-07T04:04:46;19.07;;;6.17;;
69170;SDS011;56279;47.902;12.308;2022-12-07T04:06:47;12.85;;;6.82;;
69170;SDS011;56279;47.902;12.308;2022-12-07T04:08:49;15.18;;;7.07;;
69170;SDS011;56279;47.902;12.308;2022-12-07T04:10:50;15.40;;;7.10;;
69170;SDS011;56279;47.902;12.308;2022-12-07T04:12:51;13.45;;;6.28;;
69170;SDS011;56279;47.902;12.308;2022-12-07T04:14:52;14.87;;;6.73;;
69170;SDS011;56279;47.902;12.308;2022-12-07T04:16:55;14.88;;;6.72;;
69170;SDS011;56279;47.902;12.308;2022-12-07T04:18:57;14.38;;;6.45;;
69170;SDS011;56279;47.902;12.308;2022-12-07T04:20:58;14.20;;;6.68;;
69170;SDS011;56279;47.902;12.308;2022-12-07T04:23:00;12.43;;;6.32;;
69170;SDS011;56279;47.902;12.308;2022-12-07T04:25:01;17.17;;;6.70;;
69170;SDS011;56279;47.902;12.308;2022-12-07T04:27:02;13.60;;;6.82;;
69170;SDS011;56279;47.902;12.308;2022-12-07T04:29:04;13.27;;;6.55;;
69170;SDS011;56279;47.902;12.308;2022-12-07T04:31:05;12.80;;;6.45;;
69170;SDS011;56279;47.902;12.308;2022-12-07T04:33:07;14.25;;;7.97;;
69170;SDS011;56279;47.902;12.308;2022-12-07T04:35:09;12.20;;;5.97;;
69170;SDS011;56279;47.902;12.308;2022-12-07T04:37:10;14.20;;;5.90;;
69170;SDS011;56279;47.902;12.308;2022-12-07T04:39:22;12.43;;;6.45;;
69170;SDS011;56279;47.902;12.308;2022-12-07T04:41:25;13.00;;;6.60;;
69170;SDS011;56279;47.902;12.308;2022-12-07T04:43:30;14.05;;;6.70;;
69170;SDS011;56279;47.902;12.308;2022-12-07T04:45:31;11.23;;;5.20;;
69170;SDS011;56279;47.902;12.308;2022-12-07T04:47:32;11.43;;;6.30;;
69170;SDS011;56279;47.902;12.308;2022-12-07T04:49:34;14.52;;;6.25;;
69170;SDS011;56279;47.902;12.308;2022-12-07T04:51:35;14.00;;;6.47;;
69170;SDS011;56279;47.902;12.308;2022-12-07T04:53:37;14.23;;;6.63;;
69170;SDS011;56279;47.902;12.308;2022-12-07T04:55:38;13.57;;;6.60;;
69170;SDS011;56279;47.902;12.308;2022-12-07T04:57:40;12.15;;;6.22;;
69170;SDS011;56279;47.902;12.308;2022-12-07T04:59:41;10.60;;;5.97;;
69170;SDS011;56279;47.902;12.308;2022-12-07T05:01:42;15.45;;;6.47;;
69170;SDS011;56279;47.902;12.308;2022-12-07T05:03:44;11.68;;;6.22;;
69170;SDS011;56279;47.902;12.308;2022-12-07T05:05:49;14.17;;;6.27;;
69170;SDS011;56279;47.902;12.308;2022-12-07T05:07:50;12.70;;;6.15;;
69170;SDS011;56279;47.902;12.308;2022-12-07T05:09:51;14.88;;;6.45;;
69170;SDS011;56279;47.902;12.308;2022-12-07T05:11:53;13.73;;;6.55;;
69170;SDS011;56279;47.902;12.308;2022-12-07T05:13:54;13.32;;;6.10;;
69170;SDS011;56279;47.902;12.308;2022-12-07T05:15:55;11.57;;;5.80;;
69170;SDS011;56279;47.902;12.308;2022-12-07T05:17:56;13.18;;;5.97;;
69170;SDS011;56279;47.902;12.308;2022-12-07T05:19:58;13.95;;;6.45;;
69170;SDS011;56279;47.902;12.308;2022-12-07T05:21:59;12.48;;;6.28;;
69170;SDS011;56279;47.902;12.308;2022-12-07T05:24:01;17.83;;;7.28;;
69170;SDS011;56279;47.902;12.308;2022-12-07T05:26:07;14.73;;;6.43;;
69170;SDS011;56279;47.902;12.308;2022-12-07T05:28:11;13.32;;;6.47;;
69170;SDS011;56279;47.902;12.308;2022-12-07T05:30:12;13.13;;;6.38;;
69170;SDS011;56279;47.902;12.308;2022-12-07T05:32:14;11.98;;;5.65;;
69170;SDS011;56279;47.902;12.308;2022-12-07T05:34:16;12.00;;;5.70;;
69170;SDS011;56279;47.902;12.308;2022-12-07T05:36:17;12.37;;;6.23;;
69170;SDS011;56279;47.902;12.308;2022-12-07T05:38:19;13.98;;;6.47;;
69170;SDS011;56279;47.902;12.308;2022-12-07T05:40:21;15.60;;;7.30;;
69170;SDS011;56279;47.902;12.308;2022-12-07T05:42:22;11.30;;;5.80;;
69170;SDS011;56279;47.902;12.308;2022-12-07T05:44:23;12.77;;;5.80;;
69170;SDS011;56279;47.902;12.308;2022-12-07T05:46:27;15.80;;;6.37;;
69170;SDS011;56279;47.902;12.308;2022-12-07T05:48:28;13.40;;;6.72;;
69170;SDS011;56279;47.902;12.308;2022-12-07T05:50:30;14.77;;;6.68;;
69170;SDS011;56279;47.902;12.308;2022-12-07T05:52:40;15.70;;;6.55;;
69170;SDS011;56279;47.902;12.308;2022-12-07T05:54:41;12.48;;;6.15;;
69170;SDS011;56279;47.902;12.308;2022-12-07T05:56:42;13.10;;;5.73;;
69170;SDS011;56279;47.902;12.308;2022-12-07T05:58:44;15.30;;;6.00;;
69170;SDS011;56279;47.902;12.308;2022-12-07T06:01:04;12.82;;;6.32;;
69170;SDS011;56279;47.902;12.308;2022-12-07T06:03:06;14.05;;;6.60;;
69170;SDS011;56279;47.902;12.308;2022-12-07T06:05:07;13.57;;;6.13;;
69170;SDS011;56279;47.902;12.308;2022-12-07T06:07:09;13.60;;;6.67;;
69170;SDS011;56279;47.902;12.308;2022-12-07T06:09:12;14.68;;;6.30;;
69170;SDS011;56279;47.902;12.308;2022-12-07T06:11:13;14.20;;;6.47;;
69170;SDS011;56279;47.902;12.308;2022-12-07T06:13:33;15.25;;;7.07;;
69170;SDS011;56279;47.902;12.308;2022-12-07T06:15:37;11.60;;;6.32;;
69170;SDS011;56279;47.902;12.308;2022-12-07T06:17:39;15.43;;;6.53;;
69170;SDS011;56279;47.902;12.308;2022-12-07T06:19:40;14.18;;;6.13;;
69170;SDS011;56279;47.902;12.308;2022-12-07T06:21:42;14.98;;;7.03;;
69170;SDS011;56279;47.902;12.308;2022-12-07T06:23:43;16.02;;;7.03;;
69170;SDS011;56279;47.902;12.308;2022-12-07T06:25:45;16.60;;;7.35;;
69170;SDS011;56279;47.902;12.308;2022-12-07T06:27:46;16.17;;;7.67;;
69170;SDS011;56279;47.902;12.308;2022-12-07T06:29:48;17.10;;;7.68;;
69170;SDS011;56279;47.902;12.308;2022-12-07T06:31:49;22.73;;;8.55;;
69170;SDS011;56279;47.902;12.308;2022-12-07T06:33:51;15.85;;;7.40;;
69170;SDS011;56279;47.902;12.308;2022-12-07T06:35:53;15.95;;;7.50;;
69170;SDS011;56279;47.902;12.308;2022-12-07T06:37:54;16.90;;;7.87;;
69170;SDS011;56279;47.902;12.308;2022-12-07T06:39:56;15.82;;;7.15;;
69170;SDS011;56279;47.902;12.308;2022-12-07T06:41:57;14.63;;;7.13;;
69170;SDS011;56279;47.902;12.308;2022-12-07T06:43:59;15.13;;;7.57;;
69170;SDS011;56279;47.902;12.308;2022-12-07T06:46:00;14.98;;;7.88;;
69170;SDS011;56279;47.902;12.308;2022-12-07T06:48:01;12.63;;;6.37;;
69170;SDS011;56279;47.902;12.308;2022-12-07T06:50:12;13.75;;;6.78;;
69170;SDS011;56279;47.902;12.308;2022-12-07T06:52:14;14.38;;;7.00;;
69170;SDS011;56279;47.902;12.308;2022-12-07T06:54:16;15.13;;;8.00;;
69170;SDS011;56279;47.902;12.308;2022-12-07T06:56:19;14.73;;;6.68;;
69170;SDS011;56279;47.902;12.308;2022-12-07T06:58:20;15.93;;;8.07;;
69170;SDS011;56279;47.902;12.308;2022-12-07T07:00:22;15.65;;;7.13;;
69170;SDS011;56279;47.902;12.308;2022-12-07T07:02:23;13.80;;;7.00;;
69170;SDS011;56279;47.902;12.308;2022-12-07T07:04:25;16.33;;;7.65;;
69170;SDS011;56279;47.902;12.308;2022-12-07T07:06:26;14.75;;;7.13;;
69170;SDS011;56279;47.902;12.308;2022-12-07T07:08:28;14.97;;;7.17;;
69170;SDS011;56279;47.902;12.308;2022-12-07T07:10:30;16.45;;;7.72;;
69170;SDS011;56279;47.902;12.308;2022-12-07T07:12:32;15.27;;;6.88;;
69170;SDS011;56279;47.902;12.308;2022-12-07T07:14:33;16.63;;;7.05;;
69170;SDS011;56279;47.902;12.308;2022-12-07T07:16:34;14.95;;;7.88;;
69170;SDS011;56279;47.902;12.308;2022-12-07T07:18:35;16.97;;;7.83;;
69170;SDS011;56279;47.902;12.308;2022-12-07T07:20:37;12.98;;;7.20;;
69170;SDS011;56279;47.902;12.308;2022-12-07T07:22:39;13.05;;;5.65;;
69170;SDS011;56279;47.902;12.308;2022-12-07T07:24:41;13.20;;;7.20;;
69170;SDS011;56279;47.902;12.308;2022-12-07T07:26:43;16.13;;;7.57;;
69170;SDS011;56279;47.902;12.308;2022-12-07T07:28:44;11.77;;;6.37;;
69170;SDS011;56279;47.902;12.308;2022-12-07T07:30:46;11.98;;;5.78;;
69170;SDS011;56279;47.902;12.308;2022-12-07T07:32:48;11.90;;;5.80;;
69170;SDS011;56279;47.902;12.308;2022-12-07T07:34:49;11.10;;;5.63;;
69170;SDS011;56279;47.902;12.308;2022-12-07T07:36:53;11.40;;;5.13;;
69170;SDS011;56279;47.902;12.308;2022-12-07T07:38:54;12.13;;;5.43;;
69170;SDS011;56279;47.902;12.308;2022-12-07T07:40:55;12.23;;;5.72;;
69170;SDS011;56279;47.902;12.308;2022-12-07T07:42:57;10.98;;;4.93;;
69170;SDS011;56279;47.902;12.308;2022-12-07T07:44:59;11.65;;;5.85;;
69170;SDS011;56279;47.902;12.308;2022-12-07T07:47:00;11.75;;;5.95;;
69170;SDS011;56279;47.902;12.308;2022-12-07T07:49:01;14.23;;;5.17;;
69170;SDS011;56279;47.902;12.308;2022-12-07T07:51:06;11.05;;;5.50;;
69170;SDS011;56279;47.902;12.308;2022-12-07T07:53:08;11.13;;;5.13;;
69170;SDS011;56279;47.902;12.308;2022-12-07T07:55:09;12.10;;;5.60;;
69170;SDS011;56279;47.902;12.308;2022-12-07T07:57:12;10.25;;;5.20;;
69170;SDS011;56279;47.902;12.308;2022-12-07T07:59:14;10.60;;;5.47;;
69170;SDS011;56279;47.902;12.308;2022-12-07T08:01:16;9.40;;;5.13;;
69170;SDS011;56279;47.902;12.308;2022-12-07T08:03:17;12.38;;;5.57;;
69170;SDS011;56279;47.902;12.308;2022-12-07T08:05:18;11.68;;;5.47;;
69170;SDS011;56279;47.902;12.308;2022-12-07T08:07:20;11.23;;;5.50;;
69170;SDS011;56279;47.902;12.308;2022-12-07T08:09:22;10.77;;;5.53;;
69170;SDS011;56279;47.902;12.308;2022-12-07T08:11:23;11.48;;;5.43;;
69170;SDS011;56279;47.902;12.308;2022-12-07T08:13:25;11.30;;;5.30;;
69170;SDS011;56279;47.902;12.308;2022-12-07T08:15:27;10.75;;;5.28;;
69170;SDS011;56279;47.902;12.308;2022-12-07T08:17:33;10.85;;;5.13;;
69170;SDS011;56279;47.902;12.308;2022-12-07T08:19:36;10.30;;;5.37;;
69170;SDS011;56279;47.902;12.308;2022-12-07T08:21:37;10.18;;;5.32;;
69170;SDS011;56279;47.902;12.308;2022-12-07T08:23:38;9.35;;;5.05;;
69170;SDS011;56279;47.902;12.308;2022-12-07T08:25:40;10.57;;;5.00;;
69170;SDS011;56279;47.902;12.308;2022-12-07T08:27:41;10.80;;;5.25;;
69170;SDS011;56279;47.902;12.308;2022-12-07T08:29:43;9.70;;;4.73;;
69170;SDS011;56279;47.902;12.308;2022-12-07T08:31:44;8.93;;;4.90;;
69170;SDS011;56279;47.902;12.308;2022-12-07T08:33:46;9.25;;;4.55;;
69170;SDS011;56279;47.902;12.308;2022-12-07T08:35:49;10.98;;;5.38;;
69170;SDS011;56279;47.902;12.308;2022-12-07T08:37:50;9.18;;;5.00;;
69170;SDS011;56279;47.902;12.308;2022-12-07T08:39:51;15.13;;;5.87;;
69170;SDS011;56279;47.902;12.308;2022-12-07T08:41:53;9.75;;;4.93;;
69170;SDS011;56279;47.902;12.308;2022-12-07T08:43:54;11.48;;;4.97;;
69170;SDS011;56279;47.902;12.308;2022-12-07T08:48:18;11.88;;;4.82;;
69170;SDS011;56279;47.902;12.308;2022-12-07T08:50:22;11.60;;;5.23;;
69170;SDS011;56279;47.902;12.308;2022-12-07T08:52:24;10.55;;;5.80;;
69170;SDS011;56279;47.902;12.308;2022-12-07T08:54:26;10.32;;;5.50;;
69170;SDS011;56279;47.902;12.308;2022-12-07T08:56:30;10.68;;;5.35;;
69170;SDS011;56279;47.902;12.308;2022-12-07T08:58:34;11.20;;;6.05;;
69170;SDS011;56279;47.902;12.308;2022-12-07T09:00:37;10.87;;;5.67;;
69170;SDS011;56279;47.902;12.308;2022-12-07T09:02:39;10.35;;;5.18;;
69170;SDS011;56279;47.902;12.308;2022-12-07T09:04:41;9.93;;;5.05;;
69170;SDS011;56279;47.902;12.308;2022-12-07T09:06:43;11.48;;;5.65;;
69170;SDS011;56279;47.902;12.308;2022-12-07T09:08:48;11.90;;;5.82;;
69170;SDS011;56279;47.902;12.308;2022-12-07T09:42:58;10.80;;;5.50;;
69170;SDS011;56279;47.902;12.308;2022-12-07T09:45:00;14.65;;;6.75;;
69170;SDS011;56279;47.902;12.308;2022-12-07T09:47:03;11.60;;;5.95;;
69170;SDS011;56279;47.902;12.308;2022-12-07T09:49:04;12.90;;;6.03;;
69170;SDS011;56279;47.902;12.308;2022-12-07T09:51:17;10.68;;;6.00;;
69170;SDS011;56279;47.902;12.308;2022-12-07T09:53:25;13.13;;;5.43;;
69170;SDS011;56279;47.902;12.308;2022-12-07T09:55:37;11.07;;;5.30;;
69170;SDS011;56279;47.902;12.308;2022-12-07T09:57:39;12.57;;;4.68;;
69170;SDS011;56279;47.902;12.308;2022-12-07T09:59:42;9.02;;;4.97;;
69170;SDS011;56279;47.902;12.308;2022-12-07T10:01:43;8.98;;;5.05;;
69170;SDS011;56279;47.902;12.308;2022-12-07T10:04:09;8.97;;;4.73;;
69170;SDS011;56279;47.902;12.308;2022-12-07T10:06:15;10.35;;;5.63;;
69170;SDS011;56279;47.902;12.308;2022-12-07T10:08:16;9.85;;;5.45;;
69170;SDS011;56279;47.902;12.308;2022-12-07T10:10:20;11.30;;;5.30;;
69170;SDS011;56279;47.902;12.308;2022-12-07T10:12:26;8.82;;;5.40;;
69170;SDS011;56279;47.902;12.308;2022-12-07T10:14:29;8.53;;;4.73;;
69170;SDS011;56279;47.902;12.308;2022-12-07T10:16:40;9.30;;;4.57;;
69170;SDS011;56279;47.902;12.308;2022-12-07T10:18:42;8.48;;;4.72;;
69170;SDS011;56279;47.902;12.308;2022-12-07T10:20:45;10.15;;;4.72;;
69170;SDS011;56279;47.902;12.308;2022-12-07T10:23:13;8.05;;;4.55;;
69170;SDS011;56279;47.902;12.308;2022-12-07T10:25:21;8.00;;;4.47;;
69170;SDS011;56279;47.902;12.308;2022-12-07T10:27:29;9.10;;;5.20;;
69170;SDS011;56279;47.902;12.308;2022-12-07T10:29:34;10.05;;;4.93;;
69170;SDS011;56279;47.902;12.308;2022-12-07T10:31:38;11.75;;;5.05;;
69170;SDS011;56279;47.902;12.308;2022-12-07T10:33:57;9.82;;;4.80;;
69170;SDS011;56279;47.902;12.308;2022-12-07T10:36:14;9.30;;;4.93;;
69170;SDS011;56279;47.902;12.308;2022-12-07T10:38:19;8.15;;;4.03;;
69170;SDS011;56279;47.902;12.308;2022-12-07T10:40:25;12.40;;;4.50;;
69170;SDS011;56279;47.902;12.308;2022-12-07T10:42:32;8.63;;;4.03;;
69170;SDS011;56279;47.902;12.308;2022-12-07T10:44:34;8.43;;;4.68;;
69170;SDS011;56279;47.902;12.308;2022-12-07T11:00:01;8.77;;;4.60;;
69170;SDS011;56279;47.902;12.308;2022-12-07T11:04:56;7.45;;;3.92;;
69170;SDS011;56279;47.902;12.308;2022-12-07T11:07:12;7.10;;;3.92;;
69170;SDS011;56279;47.902;12.308;2022-12-07T11:11:42;8.00;;;4.20;;
69170;SDS011;56279;47.902;12.308;2022-12-07T11:21:34;8.10;;;3.97;;
69170;SDS011;56279;47.902;12.308;2022-12-07T11:25:34;8.43;;;4.45;;
69170;SDS011;56279;47.902;12.308;2022-12-07T11:29:09;7.80;;;3.90;;
69170;SDS011;56279;47.902;12.308;2022-12-07T11:33:56;6.73;;;3.60;;
69170;SDS011;56279;47.902;12.308;2022-12-07T11:36:03;8.07;;;3.53;;
69170;SDS011;56279;47.902;12.308;2022-12-07T11:38:36;5.82;;;3.50;;
69170;SDS011;56279;47.902;12.308;2022-12-07T11:40:45;8.32;;;3.63;;
69170;SDS011;56279;47.902;12.308;2022-12-07T11:42:52;7.18;;;3.80;;
69170;SDS011;56279;47.902;12.308;2022-12-07T11:52:39;6.65;;;3.67;;
69170;SDS011;56279;47.902;12.308;2022-12-07T11:55:16;6.28;;;3.40;;
69170;SDS011;56279;47.902;12.308;2022-12-07T11:57:25;6.47;;;3.00;;
69170;SDS011;56279;47.902;12.308;2022-12-07T11:59:39;9.40;;;3.80;;
69170;SDS011;56279;47.902;12.308;2022-12-07T12:03:56;6.97;;;3.55;;
69170;SDS011;56279;47.902;12.308;2022-12-07T12:06:03;7.68;;;3.70;;
69170;SDS011;56279;47.902;12.308;2022-12-07T12:19:59;6.57;;;2.97;;
69170;SDS011;56279;47.902;12.308;2022-12-07T12:22:19;6.32;;;2.97;;
69170;SDS011;56279;47.902;12.308;2022-12-07T12:24:26;5.95;;;2.83;;
69170;SDS011;56279;47.902;12.308;2022-12-07T12:26:33;21.42;;;9.98;;
69170;SDS011;56279;47.902;12.308;2022-12-07T12:28:41;19.75;;;8.60;;
69170;SDS011;56279;47.902;12.308;2022-12-07T12:33:27;7.43;;;3.22;;
69170;SDS011;56279;47.902;12.308;2022-12-07T12:35:34;6.63;;;3.38;;
69170;SDS011;56279;47.902;12.308;2022-12-07T12:37:39;6.10;;;3.28;;
69170;SDS011;56279;47.902;12.308;2022-12-07T12:39:50;6.18;;;2.92;;
69170;SDS011;56279;47.902;12.308;2022-12-07T12:42:43;9.03;;;4.10;;
69170;SDS011;56279;47.902;12.308;2022-12-07T12:50:16;8.73;;;4.72;;
69170;SDS011;56279;47.902;12.308;2022-12-07T12:52:46;8.27;;;3.90;;
69170;SDS011;56279;47.902;12.308;2022-12-07T12:54:58;6.33;;;3.60;;
69170;SDS011;56279;47.902;12.308;2022-12-07T12:57:24;9.45;;;4.63;;
69170;SDS011;56279;47.902;12.308;2022-12-07T13:00:30;7.55;;;4.05;;
69170;SDS011;56279;47.902;12.308;2022-12-07T13:02:21;11.35;;;4.63;;
69170;SDS011;56279;47.902;12.308;2022-12-07T13:07:02;9.73;;;4.50;;
69170;SDS011;56279;47.902;12.308;2022-12-07T13:09:03;9.00;;;4.15;;
69170;SDS011;56279;47.902;12.308;2022-12-07T13:11:24;7.85;;;4.35;;
69170;SDS011;56279;47.902;12.308;2022-12-07T13:13:30;10.45;;;4.35;;
69170;SDS011;56279;47.902;12.308;2022-12-07T13:21:53;9.30;;;4.80;;
69170;SDS011;56279;47.902;12.308;2022-12-07T13:23:55;12.07;;;5.22;;
69170;SDS011;56279;47.902;12.308;2022-12-07T13:28:18;11.20;;;5.20;;
69170;SDS011;56279;47.902;12.308;2022-12-07T13:30:21;13.27;;;4.85;;
69170;SDS011;56279;47.902;12.308;2022-12-07T13:32:24;9.00;;;4.45;;
69170;SDS011;56279;47.902;12.308;2022-12-07T13:34:34;8.77;;;4.55;;
69170;SDS011;56279;47.902;12.308;2022-12-07T13:36:43;8.15;;;4.47;;
69170;SDS011;56279;47.902;12.308;2022-12-07T13:38:49;11.17;;;4.60;;
69170;SDS011;56279;47.902;12.308;2022-12-07T13:43:14;11.48;;;5.07;;
69170;SDS011;56279;47.902;12.308;2022-12-07T13:45:24;9.25;;;4.90;;
69170;SDS011;56279;47.902;12.308;2022-12-07T13:47:49;9.20;;;4.82;;
69170;SDS011;56279;47.902;12.308;2022-12-07T13:49:56;9.63;;;4.90;;
69170;SDS011;56279;47.902;12.308;2022-12-07T13:52:59;39.47;;;17.23;;
69170;SDS011;56279;47.902;12.308;2022-12-07T13:54:30;18.30;;;8.65;;
69170;SDS011;56279;47.902;12.308;2022-12-07T13:56:32;14.90;;;7.82;;
69170;SDS011;56279;47.902;12.308;2022-12-07T13:58:37;11.02;;;5.88;;
69170;SDS011;56279;47.902;12.308;2022-12-07T14:00:39;13.37;;;5.90;;
69170;SDS011;56279;47.902;12.308;2022-12-07T14:03:04;10.57;;;5.82;;
69170;SDS011;56279;47.902;12.308;2022-12-07T14:05:30;11.68;;;5.57;;
69170;SDS011;56279;47.902;12.308;2022-12-07T14:07:54;9.43;;;4.38;;
69170;SDS011;56279;47.902;12.308;2022-12-07T14:09:59;10.98;;;5.20;;
69170;SDS011;56279;47.902;12.308;2022-12-07T14:12:05;11.27;;;5.27;;
69170;SDS011;56279;47.902;12.308;2022-12-07T14:14:10;11.50;;;4.88;;
69170;SDS011;56279;47.902;12.308;2022-12-07T14:20:39;18.50;;;9.05;;
69170;SDS011;56279;47.902;12.308;2022-12-07T14:22:42;14.87;;;6.60;;
69170;SDS011;56279;47.902;12.308;2022-12-07T14:24:44;12.18;;;5.80;;
69170;SDS011;56279;47.902;12.308;2022-12-07T14:26:48;12.45;;;6.22;;
69170;SDS011;56279;47.902;12.308;2022-12-07T14:28:51;12.48;;;5.88;;
69170;SDS011;56279;47.902;12.308;2022-12-07T14:30:52;12.25;;;5.25;;
69170;SDS011;56279;47.902;12.308;2022-12-07T14:36:35;10.07;;;5.60;;
69170;SDS011;56279;47.902;12.308;2022-12-07T14:38:36;14.20;;;5.65;;
69170;SDS011;56279;47.902;12.308;2022-12-07T14:40:38;10.70;;;5.88;;
69170;SDS011;56279;47.902;12.308;2022-12-07T14:42:48;12.65;;;6.20;;
69170;SDS011;56279;47.902;12.308;2022-12-07T14:47:26;10.75;;;5.85;;
69170;SDS011;56279;47.902;12.308;2022-12-07T14:49:27;12.57;;;6.32;;
69170;SDS011;56279;47.902;12.308;2022-12-07T14:51:31;10.57;;;5.63;;